createdAt,value
2022-11-15T00:02:23.673Z,101193.38
2022-11-15T00:05:10.219Z,101191.31
2022-11-15T00:07:58.297Z,101197.34
2022-11-15T00:10:54.656Z,101190.81
2022-11-15T00:13:41.688Z,101191.06
2022-11-15T00:16:27.971Z,101188.41
2022-11-15T00:19:14.743Z,101182.31
2022-11-15T00:22:01.444Z,101185.28
2022-11-15T00:24:48.001Z,101178.03
2022-11-15T00:27:34.271Z,101172.34
2022-11-15T00:30:20.793Z,101171.50
2022-11-15T00:33:08.151Z,101170.69
2022-11-15T00:35:54.516Z,101163.91
2022-11-15T00:38:41.881Z,101166.38
2022-11-15T00:41:28.430Z,101171.44
2022-11-15T00:44:14.678Z,101177.06
2022-11-15T00:47:00.859Z,101170.94
2022-11-15T00:49:47.356Z,101179.69
2022-11-15T00:52:33.624Z,101177.13
2022-11-15T00:55:21.122Z,101172.28
2022-11-15T00:58:07.302Z,101173.75
2022-11-15T01:00:53.681Z,101166.75
2022-11-15T01:03:41.447Z,101164.19
2022-11-15T01:06:27.878Z,101173.59
2022-11-15T01:09:14.881Z,101169.41
2022-11-15T01:12:01.327Z,101171.59
2022-11-15T01:14:47.689Z,101167.81
2022-11-15T01:17:34.173Z,101163.25
2022-11-15T01:20:20.294Z,101164.50
2022-11-15T01:23:06.816Z,101160.06
2022-11-15T01:25:53.402Z,101147.50
2022-11-15T01:28:41.863Z,101153.94
2022-11-15T01:31:28.311Z,101148.19
2022-11-15T01:34:16.284Z,101137.84
2022-11-15T01:37:02.659Z,101133.72
2022-11-15T01:39:48.973Z,101132.91
2022-11-15T01:42:35.012Z,101127.53
2022-11-15T01:45:21.524Z,101137.59
2022-11-15T01:48:11.673Z,101125.03
2022-11-15T01:50:59.317Z,101127.94
2022-11-15T01:53:51.336Z,101124.03
2022-11-15T01:56:44.266Z,101118.25
2022-11-15T01:59:31.304Z,101110.16
2022-11-15T02:02:17.843Z,101114.06
2022-11-15T02:05:05.345Z,101124.63
2022-11-15T02:07:52.899Z,101123.25
2022-11-15T02:10:39.424Z,101117.31
2022-11-15T02:13:25.777Z,101113.34
2022-11-15T02:16:34.650Z,101104.06
2022-11-15T02:19:32.748Z,101098.63
2022-11-15T02:22:37.098Z,101096.34
2022-11-15T02:26:00.549Z,101086.84
2022-11-15T02:29:04.437Z,101080.06
2022-11-15T02:32:16.708Z,101074.78
2022-11-15T02:35:12.307Z,101077.25
2022-11-15T02:38:03.455Z,101074.53
2022-11-15T02:41:05.094Z,101080.78
2022-11-15T02:44:09.431Z,101086.09
2022-11-15T02:47:15.307Z,101083.09
2022-11-15T02:50:10.131Z,101079.50
2022-11-15T02:52:57.120Z,101086.75
2022-11-15T02:55:48.445Z,101085.69
2022-11-15T02:58:55.008Z,101084.19
2022-11-15T03:02:20.081Z,101085.59
2022-11-15T03:05:38.501Z,101085.72
2022-11-15T03:08:34.341Z,101084.41
2022-11-15T03:11:23.215Z,101079.25
2022-11-15T03:14:36.374Z,101067.41
2022-11-15T03:17:29.771Z,101075.69
2022-11-15T03:20:19.597Z,101067.75
2022-11-15T03:23:10.275Z,101070.66
2022-11-15T03:25:59.323Z,101068.59
2022-11-15T03:28:54.378Z,101075.00
2022-11-15T03:31:50.802Z,101078.63
2022-11-15T03:34:56.150Z,101070.22
2022-11-15T03:37:50.405Z,101081.31
2022-11-15T03:41:01.014Z,101085.44
2022-11-15T03:43:57.022Z,101086.16
2022-11-15T03:46:55.468Z,101081.31
2022-11-15T03:49:58.502Z,101083.69
2022-11-15T03:52:47.854Z,101075.59
2022-11-15T03:55:34.442Z,101072.03
2022-11-15T03:58:21.135Z,101066.53
2022-11-15T04:01:07.592Z,101052.44
2022-11-15T04:03:54.282Z,101038.72
2022-11-15T04:06:40.829Z,101039.28
2022-11-15T04:09:27.328Z,101034.50
2022-11-15T04:12:13.610Z,101042.03
2022-11-15T04:15:08.479Z,101042.81
2022-11-15T04:17:56.983Z,101046.38
2022-11-15T04:21:02.079Z,101052.41
2022-11-15T04:24:07.081Z,101043.66
2022-11-15T04:26:53.697Z,101057.88
2022-11-15T04:29:40.361Z,101039.16
2022-11-15T04:32:26.871Z,101032.13
2022-11-15T04:35:13.578Z,101033.44
2022-11-15T04:38:00.294Z,101034.34
2022-11-15T04:40:47.707Z,101024.69
2022-11-15T04:43:34.399Z,101031.94
2022-11-15T04:46:20.844Z,101035.16
2022-11-15T04:49:07.591Z,101032.53
2022-11-15T04:51:53.960Z,101029.31
2022-11-15T04:54:40.532Z,101019.72
2022-11-15T04:57:27.105Z,101011.81
2022-11-15T05:00:17.087Z,101021.56
2022-11-15T05:03:22.169Z,101019.31
2022-11-15T05:06:08.889Z,101016.25
2022-11-15T05:08:56.543Z,101023.84
2022-11-15T05:11:43.679Z,101019.81
2022-11-15T05:14:30.380Z,101020.38
2022-11-15T05:17:16.709Z,101027.09
2022-11-15T05:20:03.227Z,101021.03
2022-11-15T05:22:49.575Z,101013.97
2022-11-15T05:25:38.141Z,101032.81
2022-11-15T05:28:24.365Z,101038.22
2022-11-15T05:31:13.299Z,101030.41
2022-11-15T05:34:02.024Z,101040.56
2022-11-15T05:36:48.485Z,101037.81
2022-11-15T05:39:34.922Z,101039.19
2022-11-15T05:42:21.132Z,101036.31
2022-11-15T05:45:09.175Z,101045.47
2022-11-15T05:47:58.725Z,101032.94
2022-11-15T05:50:48.283Z,101040.03
2022-11-15T05:53:37.600Z,101042.16
2022-11-15T05:56:24.347Z,101048.84
2022-11-15T05:59:12.464Z,101043.56
2022-11-15T06:01:59.165Z,101052.03
2022-11-15T06:04:45.441Z,101057.28
2022-11-15T06:07:31.861Z,101061.34
2022-11-15T06:10:18.400Z,101057.28
2022-11-15T06:13:05.936Z,101062.66
2022-11-15T06:15:52.448Z,101057.94
2022-11-15T06:18:39.401Z,101052.97
2022-11-15T06:21:25.681Z,101060.91
2022-11-15T06:24:11.945Z,101048.34
2022-11-15T06:27:00.241Z,101072.94
2022-11-15T06:29:46.667Z,101058.75
2022-11-15T06:32:33.382Z,101064.44
2022-11-15T06:35:20.979Z,101072.94
2022-11-15T06:38:10.255Z,101070.63
2022-11-15T06:41:01.865Z,101066.25
2022-11-15T06:43:48.252Z,101082.22
2022-11-15T06:46:34.465Z,101063.91
2022-11-15T06:49:20.947Z,101063.41
2022-11-15T06:52:07.263Z,101072.81
2022-11-15T06:54:53.781Z,101072.81
2022-11-15T06:57:48.268Z,101083.56
2022-11-15T07:00:34.721Z,101089.78
2022-11-15T07:03:21.109Z,101081.25
2022-11-15T07:06:08.333Z,101085.34
2022-11-15T07:08:54.428Z,101087.31
2022-11-15T07:11:41.192Z,101082.78
2022-11-15T07:14:27.534Z,101085.09
2022-11-15T07:17:13.899Z,101078.91
2022-11-15T07:20:00.294Z,101074.38
2022-11-15T07:22:46.687Z,101083.28
2022-11-15T07:25:32.994Z,101079.16
2022-11-15T07:28:19.295Z,101090.38
2022-11-15T07:31:07.895Z,101089.91
2022-11-15T07:33:54.356Z,101084.28
2022-11-15T07:36:41.066Z,101086.75
2022-11-15T07:39:27.162Z,101096.00
2022-11-15T07:42:31.734Z,101090.66
2022-11-15T07:45:17.677Z,101094.09
2022-11-15T07:48:04.403Z,101096.13
2022-11-15T07:50:51.912Z,101094.59
2022-11-15T07:53:37.851Z,101102.72
2022-11-15T07:56:24.159Z,101101.84
2022-11-15T07:59:10.126Z,101100.38
2022-11-15T08:01:56.663Z,101094.44
2022-11-15T08:04:43.006Z,101095.13
2022-11-15T08:07:32.437Z,101087.53
2022-11-15T08:10:20.203Z,101085.63
2022-11-15T08:13:08.883Z,101079.94
2022-11-15T08:16:02.085Z,101088.22
2022-11-15T08:18:48.718Z,101083.88
2022-11-15T08:21:36.300Z,101089.72
2022-11-15T08:24:22.663Z,101083.41
2022-11-15T08:27:16.087Z,101080.84
2022-11-15T08:30:02.857Z,101073.63
2022-11-15T08:32:50.343Z,101076.38
2022-11-15T08:35:36.704Z,101083.38
2022-11-15T08:38:23.124Z,101083.69
2022-11-15T08:41:26.294Z,101089.84
2022-11-15T08:44:12.367Z,101079.81
2022-11-15T08:46:58.522Z,101072.09
2022-11-15T08:49:45.096Z,101074.72
2022-11-15T08:52:31.719Z,101082.06
2022-11-15T08:55:17.958Z,101080.88
2022-11-15T08:58:04.472Z,101087.72
2022-11-15T09:00:51.019Z,101086.66
2022-11-15T09:03:37.170Z,101081.56
2022-11-15T09:06:23.389Z,101095.38
2022-11-15T09:09:09.946Z,101087.13
2022-11-15T09:12:01.152Z,101080.91
2022-11-15T09:14:48.825Z,101084.19
2022-11-15T09:17:35.064Z,101071.06
2022-11-15T09:20:21.557Z,101073.03
2022-11-15T09:23:08.060Z,101083.31
2022-11-15T09:26:03.968Z,101069.53
2022-11-15T09:28:50.221Z,101073.88
2022-11-15T09:31:36.473Z,101080.94
2022-11-15T09:34:22.660Z,101066.47
2022-11-15T09:37:09.095Z,101070.66
2022-11-15T09:39:55.194Z,101076.94
2022-11-15T09:42:46.987Z,101079.94
2022-11-15T09:45:47.440Z,101068.63
2022-11-15T09:48:38.481Z,101058.06
2022-11-15T09:51:35.476Z,101061.34
2022-11-15T09:54:51.525Z,101062.16
2022-11-15T09:57:19.710Z,101058.97
2022-11-15T10:00:45.491Z,101067.28
2022-11-15T10:03:15.238Z,101060.44
2022-11-15T10:05:48.951Z,101057.66
2022-11-15T10:08:22.560Z,101054.63
2022-11-15T10:11:22.855Z,101052.75
2022-11-15T10:13:49.026Z,101041.81
2022-11-15T10:16:47.833Z,101036.00
2022-11-15T10:19:27.414Z,101015.47
2022-11-15T10:22:16.212Z,101019.94
2022-11-15T10:24:46.062Z,101020.44
2022-11-15T10:27:16.880Z,101011.59
2022-11-15T10:29:47.198Z,101010.00
2022-11-15T10:32:16.518Z,101007.19
2022-11-15T10:34:46.295Z,101002.25
2022-11-15T10:37:14.087Z,101003.41
2022-11-15T10:39:41.840Z,100992.72
2022-11-15T10:42:27.881Z,100991.06
2022-11-15T10:44:56.013Z,100994.34
2022-11-15T10:47:26.511Z,100983.63
2022-11-15T10:49:59.421Z,100988.03
2022-11-15T10:52:27.981Z,100981.75
2022-11-15T10:55:13.075Z,100978.53
2022-11-15T10:57:41.085Z,100973.06
2022-11-15T11:00:33.361Z,100971.44
2022-11-15T11:03:04.363Z,100966.78
2022-11-15T11:05:42.113Z,100961.03
2022-11-15T11:08:17.028Z,100961.59
2022-11-15T11:11:00.079Z,100958.28
2022-11-15T11:13:29.877Z,100950.91
2022-11-15T11:16:15.413Z,100952.84
2022-11-15T11:18:59.387Z,100942.72
2022-11-15T11:21:47.638Z,100941.59
2022-11-15T11:24:30.043Z,100925.16
2022-11-15T11:27:31.533Z,100926.53
2022-11-15T11:30:35.214Z,100936.13
2022-11-15T11:33:14.006Z,100925.16
2022-11-15T11:35:57.195Z,100921.59
2022-11-15T11:38:49.116Z,100925.16
2022-11-15T11:41:40.088Z,100921.06
2022-11-15T11:44:23.294Z,100913.94
2022-11-15T11:46:59.299Z,100907.94
2022-11-15T11:49:35.141Z,100899.41
2022-11-15T11:52:17.097Z,100898.31
2022-11-15T11:54:55.568Z,100901.63
2022-11-15T11:57:49.982Z,100893.94
2022-11-15T12:00:28.676Z,100898.88
2022-11-15T12:03:06.816Z,100896.13
2022-11-15T12:05:52.953Z,100887.59
2022-11-15T12:08:34.406Z,100888.38
2022-11-15T12:11:18.456Z,100880.47
2022-11-15T12:13:50.781Z,100871.66
2022-11-15T12:16:24.055Z,100862.34
2022-11-15T12:18:55.014Z,100865.38
2022-11-15T12:21:28.929Z,100849.19
2022-11-15T12:24:21.977Z,100856.25
2022-11-15T12:26:59.483Z,100860.81
2022-11-15T12:29:40.276Z,100849.59
2022-11-15T12:32:24.672Z,100856.44
2022-11-15T12:34:54.560Z,100843.63
2022-11-15T12:37:44.340Z,100844.66
2022-11-15T12:40:24.922Z,100844.97
2022-11-15T12:43:15.648Z,100833.72
2022-11-15T12:45:46.006Z,100832.06
2022-11-15T12:48:19.929Z,100837.56
2022-11-15T12:50:56.330Z,100816.44
2022-11-15T12:53:24.126Z,100824.28
2022-11-15T12:56:13.806Z,100817.63
2022-11-15T12:59:00.903Z,100808.38
2022-11-15T13:01:31.964Z,100819.69
2022-11-15T13:04:10.062Z,100809.25
2022-11-15T13:06:46.747Z,100803.22
2022-11-15T13:09:46.708Z,100789.91
2022-11-15T13:12:36.882Z,100790.66
2022-11-15T13:15:13.482Z,100790.75
2022-11-15T13:17:50.966Z,100788.22
2022-11-15T13:20:21.063Z,100789.09
2022-11-15T13:23:00.435Z,100780.34
2022-11-15T13:25:37.373Z,100773.59
2022-11-15T13:28:11.177Z,100773.38
2022-11-15T13:30:41.251Z,100766.78
2022-11-15T13:33:18.365Z,100762.97
2022-11-15T13:35:56.573Z,100757.31
2022-11-15T13:38:30.422Z,100755.41
2022-11-15T13:40:59.572Z,100749.78
2022-11-15T13:43:32.744Z,100742.75
2022-11-15T13:46:22.990Z,100746.00
2022-11-15T13:48:58.447Z,100739.38
2022-11-15T13:51:56.029Z,100745.09
2022-11-15T13:54:36.046Z,100748.13
2022-11-15T13:57:22.324Z,100746.22
2022-11-15T13:59:57.112Z,100742.34
2022-11-15T14:02:34.128Z,100743.78
2022-11-15T14:05:17.789Z,100737.75
2022-11-15T14:07:55.596Z,100740.38
2022-11-15T14:10:41.724Z,100738.22
2022-11-15T14:13:30.993Z,100731.09
2022-11-15T14:16:16.470Z,100733.56
2022-11-15T14:18:52.335Z,100730.25
2022-11-15T14:21:21.511Z,100735.13
2022-11-15T14:23:50.217Z,100724.25
2022-11-15T14:26:36.836Z,100713.69
2022-11-15T14:29:27.342Z,100713.88
2022-11-15T14:32:13.081Z,100720.41
2022-11-15T14:34:40.873Z,100719.50
2022-11-15T14:37:35.153Z,100717.34
2022-11-15T14:40:06.192Z,100712.00
2022-11-15T14:42:34.148Z,100716.47
2022-11-15T14:45:01.996Z,100706.47
2022-11-15T14:47:29.747Z,100707.44
2022-11-15T14:49:57.542Z,100709.81
2022-11-15T14:52:36.666Z,100712.25
2022-11-15T14:55:14.029Z,100706.97
2022-11-15T14:57:41.885Z,100706.47
2022-11-15T15:00:11.157Z,100701.72
2022-11-15T15:02:43.448Z,100699.94
2022-11-15T15:05:24.733Z,100701.03
2022-11-15T15:07:54.256Z,100698.53
2022-11-15T15:10:40.551Z,100694.50
2022-11-15T15:13:17.785Z,100698.00
2022-11-15T15:15:45.622Z,100697.44
2022-11-15T15:18:13.401Z,100693.16
2022-11-15T15:20:43.011Z,100694.78
2022-11-15T15:23:18.823Z,100690.69
2022-11-15T15:25:49.849Z,100699.56
2022-11-15T15:28:18.097Z,100688.22
2022-11-15T15:30:45.933Z,100679.75
2022-11-15T15:33:13.700Z,100682.19
2022-11-15T15:35:44.547Z,100684.00
2022-11-15T15:38:13.405Z,100682.22
2022-11-15T15:40:41.511Z,100688.59
2022-11-15T15:43:10.396Z,100683.63
2022-11-15T15:45:41.017Z,100687.75
2022-11-15T15:48:16.777Z,100674.88
2022-11-15T15:50:46.253Z,100685.69
2022-11-15T15:53:14.673Z,100681.31
2022-11-15T15:55:42.359Z,100683.72
2022-11-15T15:58:10.371Z,100677.91
2022-11-15T16:00:38.508Z,100669.25
2022-11-15T16:03:06.378Z,100665.41
2022-11-15T16:05:34.262Z,100662.97
2022-11-15T16:08:02.185Z,100668.88
2022-11-15T16:10:34.808Z,100674.13
2022-11-15T16:13:02.608Z,100668.84
2022-11-15T16:15:32.551Z,100681.13
2022-11-15T16:18:02.037Z,100673.41
2022-11-15T16:20:32.336Z,100683.56
2022-11-15T16:23:05.733Z,100677.25
2022-11-15T16:25:56.937Z,100668.44
2022-11-15T16:28:27.942Z,100664.13
2022-11-15T16:31:09.126Z,100662.06
2022-11-15T16:33:37.659Z,100657.50
2022-11-15T16:36:07.405Z,100650.94
2022-11-15T16:38:36.877Z,100653.72
2022-11-15T16:41:04.934Z,100643.34
2022-11-15T16:43:33.012Z,100653.19
2022-11-15T16:46:13.470Z,100647.19
2022-11-15T16:48:41.552Z,100643.09
2022-11-15T16:51:09.388Z,100638.75
2022-11-15T16:53:38.409Z,100649.50
2022-11-15T16:56:29.241Z,100638.31
2022-11-15T16:58:59.642Z,100642.66
2022-11-15T17:01:35.673Z,100644.59
2022-11-15T17:04:13.830Z,100636.09
2022-11-15T17:06:43.493Z,100642.38
2022-11-15T17:09:17.297Z,100642.16
2022-11-15T17:11:45.689Z,100646.50
2022-11-15T17:14:13.929Z,100638.53
2022-11-15T17:16:44.785Z,100647.03
2022-11-15T17:19:17.627Z,100641.53
2022-11-15T17:21:46.106Z,100645.91
2022-11-15T17:24:14.812Z,100647.81
2022-11-15T17:26:44.025Z,100639.94
2022-11-15T17:29:14.035Z,100643.75
2022-11-15T17:31:41.942Z,100642.66
2022-11-15T17:34:09.891Z,100635.78
2022-11-15T17:36:38.338Z,100638.84
2022-11-15T17:39:06.174Z,100641.94
2022-11-15T17:41:34.059Z,100641.53
2022-11-15T17:44:03.617Z,100629.72
2022-11-15T17:46:34.314Z,100630.56
2022-11-15T17:49:02.677Z,100622.38
2022-11-15T17:51:30.624Z,100631.69
2022-11-15T17:53:58.759Z,100618.53
2022-11-15T17:56:38.854Z,100636.59
2022-11-15T17:59:12.886Z,100625.13
2022-11-15T18:01:46.109Z,100625.75
2022-11-15T18:04:16.106Z,100623.56
2022-11-15T18:06:44.465Z,100631.19
2022-11-15T18:09:13.153Z,100632.81
2022-11-15T18:11:42.426Z,100623.78
2022-11-15T18:14:14.986Z,100614.38
2022-11-15T18:16:43.062Z,100611.59
2022-11-15T18:19:14.269Z,100601.44
2022-11-15T18:21:59.339Z,100596.81
2022-11-15T18:24:31.712Z,100616.16
2022-11-15T18:27:01.220Z,100597.88
2022-11-15T18:29:29.414Z,100609.59
2022-11-15T18:31:57.642Z,100616.81
2022-11-15T18:34:28.914Z,100619.78
2022-11-15T18:36:56.796Z,100615.44
2022-11-15T18:39:24.557Z,100615.19
2022-11-15T18:41:52.492Z,100594.84
2022-11-15T18:44:20.289Z,100596.41
2022-11-15T18:46:48.136Z,100591.94
2022-11-15T18:49:20.470Z,100592.06
2022-11-15T18:51:49.009Z,100597.28
2022-11-15T18:54:18.408Z,100587.13
2022-11-15T18:56:47.093Z,100576.50
2022-11-15T18:59:17.870Z,100575.41
2022-11-15T19:01:48.513Z,100566.91
2022-11-15T19:04:19.642Z,100564.94
2022-11-15T19:06:50.092Z,100559.28
2022-11-15T19:09:20.044Z,100552.69
2022-11-15T19:11:51.776Z,100543.19
2022-11-15T19:14:24.298Z,100547.22
2022-11-15T19:16:53.116Z,100545.88
2022-11-15T19:19:24.588Z,100551.09
2022-11-15T19:21:53.643Z,100540.72
2022-11-15T19:24:21.696Z,100543.66
2022-11-15T19:26:49.980Z,100539.28
2022-11-15T19:29:18.472Z,100536.00
2022-11-15T19:31:48.679Z,100546.84
2022-11-15T19:34:18.124Z,100537.22
2022-11-15T19:36:47.639Z,100529.31
2022-11-15T19:39:18.212Z,100535.91
2022-11-15T19:41:46.630Z,100532.41
2022-11-15T19:44:15.284Z,100528.81
2022-11-15T19:46:44.498Z,100516.50
2022-11-15T19:49:12.610Z,100527.13
2022-11-15T19:51:42.824Z,100522.19
2022-11-15T19:54:13.800Z,100517.03
2022-11-15T19:56:41.815Z,100516.13
2022-11-15T19:59:12.033Z,100517.78
2022-11-15T20:01:40.062Z,100522.31
2022-11-15T20:04:10.206Z,100521.16
2022-11-15T20:06:42.002Z,100501.00
2022-11-15T20:13:38.620Z,100510.09
2022-11-15T20:16:09.638Z,100508.75
2022-11-15T20:18:37.422Z,100512.13
2022-11-15T20:21:06.458Z,100496.66
2022-11-15T20:23:34.175Z,100490.13
2022-11-15T20:26:02.003Z,100478.09
2022-11-15T20:28:29.831Z,100481.13
2022-11-15T20:31:00.390Z,100477.19
2022-11-15T20:33:28.835Z,100478.34
2022-11-15T20:35:57.463Z,100465.75
2022-11-15T20:38:28.411Z,100469.25
2022-11-15T20:41:00.031Z,100467.41
2022-11-15T20:43:28.064Z,100469.03
2022-11-15T20:45:56.249Z,100466.59
2022-11-15T20:48:23.890Z,100460.31
2022-11-15T20:50:51.779Z,100468.94
2022-11-15T20:53:20.634Z,100459.56
2022-11-15T20:55:51.133Z,100454.72
2022-11-15T20:58:20.362Z,100440.81
2022-11-15T21:00:48.560Z,100433.97
2022-11-15T21:03:16.526Z,100425.16
2022-11-15T21:05:45.158Z,100415.22
2022-11-15T21:08:13.497Z,100420.69
2022-11-15T21:11:00.492Z,100423.44
2022-11-15T21:13:28.626Z,100405.97
2022-11-15T21:16:00.446Z,100413.56
2022-11-15T21:18:28.145Z,100408.56
2022-11-15T21:20:55.793Z,100420.69
2022-11-15T21:23:23.661Z,100416.00
2022-11-15T21:25:52.640Z,100408.63
2022-11-15T21:28:20.268Z,100402.31
2022-11-15T21:30:59.960Z,100409.13
2022-11-15T21:33:28.306Z,100398.00
2022-11-15T21:36:00.402Z,100396.94
2022-11-15T21:38:31.466Z,100393.09
2022-11-15T21:41:03.860Z,100404.28
2022-11-15T21:43:34.559Z,100411.03
2022-11-15T21:46:06.913Z,100400.44
2022-11-15T21:48:36.457Z,100394.44
2022-11-15T21:51:07.250Z,100386.28
2022-11-15T21:53:37.921Z,100370.41
2022-11-15T21:56:06.878Z,100367.47
2022-11-15T21:58:35.673Z,100371.00
2022-11-15T22:01:22.828Z,100376.94
2022-11-15T22:03:51.823Z,100371.97
2022-11-15T22:06:21.003Z,100377.78
2022-11-15T22:08:48.783Z,100374.03
2022-11-15T22:11:16.668Z,100368.78
2022-11-15T22:13:44.300Z,100357.63
2022-11-15T22:16:12.275Z,100357.25
2022-11-15T22:18:42.686Z,100350.72
2022-11-15T22:21:16.050Z,100349.31
2022-11-15T22:23:44.724Z,100347.69
2022-11-15T22:26:19.410Z,100353.41
2022-11-15T22:28:49.842Z,100361.25
2022-11-15T22:31:17.644Z,100356.09
2022-11-15T22:33:45.331Z,100351.66
2022-11-15T22:36:13.371Z,100342.97
2022-11-15T22:38:41.050Z,100342.09
2022-11-15T22:41:08.881Z,100341.63
2022-11-15T22:43:36.660Z,100341.28
2022-11-15T22:46:05.614Z,100335.09
2022-11-15T22:48:37.997Z,100335.28
2022-11-15T22:51:07.374Z,100324.03
2022-11-15T22:53:35.282Z,100321.94
2022-11-15T22:56:05.004Z,100317.91
2022-11-15T22:58:34.121Z,100321.09
2022-11-15T23:01:04.458Z,100317.56
2022-11-15T23:03:33.689Z,100312.59
2022-11-15T23:06:07.804Z,100300.75
2022-11-15T23:08:36.118Z,100286.03
2022-11-15T23:11:23.384Z,100290.41
2022-11-15T23:13:55.672Z,100285.25
2022-11-15T23:16:23.677Z,100265.16
2022-11-15T23:18:59.554Z,100262.72
2022-11-15T23:21:49.900Z,100267.63
2022-11-15T23:24:22.165Z,100264.81
2022-11-15T23:26:52.159Z,100273.19
2022-11-15T23:29:21.999Z,100268.03
2022-11-15T23:32:08.523Z,100263.06
2022-11-15T23:34:42.577Z,100255.69
2022-11-15T23:37:13.048Z,100245.81
2022-11-15T23:39:40.830Z,100232.47
2022-11-15T23:42:19.819Z,100227.63
2022-11-15T23:44:50.719Z,100232.41
2022-11-15T23:47:19.492Z,100231.38
2022-11-15T23:49:47.378Z,100216.09
2022-11-15T23:52:16.037Z,100219.31
2022-11-15T23:54:44.746Z,100229.91
2022-11-15T23:57:12.601Z,100218.19
2022-11-15T23:59:45.535Z,100216.34
